EGKK/LGW METAR and TAF weather

Enter ICAO airport designator
Station Type Date Time Source
EGKK METAR 2018/10/21 06:20 UTC NOAA

EGKK 210620Z VRB02KT 3000 BCFG NSC 06/05 Q1028


Station Type Date Time Source
EGKK Decoded METAR 2018/10/21 06:20 UTC NOAA

London / Gatwick Airport, United Kingdom (EGKK) 51-09N 000-11W 0M
Oct 21, 2018 - 02:20 AM EDT / 2018.10.21 0620 UTC
Wind: Variable at 2 MPH (2 KT):0
Visibility: 1 mile(s):0
Weather: patches of fog
Temperature: 42 F (6 C)
Dew Point: 41 F (5 C)
Relative Humidity: 93%
Pressure (altimeter): 30.36 in. Hg (1028 hPa)
ob: EGKK 210620Z VRB02KT 3000 BCFG NSC 06/05 Q1028
cycle: 6

Station Type Date Time Source
EGKK TAF 2018/10/21 06:12 UTC NOAA

TAF TAF EGKK 210507Z 2106/2212 VRB03KT 3000 BR MIFG NSC PROB40 2106/2109 0300 FG VV///
BECMG 2109/2111 CAVOK
BECMG 2117/2120 34010KT BKN025
TEMPO 2120/2201 6000 -RADZ BKN012 PROB30
TEMPO 2122/2201 RA BKN008
BECMG 2201/2203 CAVOK


Example: see airport list